sensor_id;sensor_type;location;lat;lon;timestamp;pressure;altitude;pressure_sealevel;temperature;humidity
71976;BME280;60680;52.182;5.398;2022-12-10T00:01:33;100867.00;;;-1.32;99.51
71976;BME280;60680;52.182;5.398;2022-12-10T00:04:00;100868.72;;;-1.34;100.00
71976;BME280;60680;52.182;5.398;2022-12-10T00:06:29;100867.03;;;-1.34;100.00
71976;BME280;60680;52.182;5.398;2022-12-10T00:08:56;100866.16;;;-1.34;99.76
71976;BME280;60680;52.182;5.398;2022-12-10T00:11:23;100863.63;;;-1.34;99.82
71976;BME280;60680;52.182;5.398;2022-12-10T00:13:51;100873.00;;;-1.33;99.59
71976;BME280;60680;52.182;5.398;2022-12-10T00:16:19;100873.81;;;-1.34;100.00
71976;BME280;60680;52.182;5.398;2022-12-10T00:18:47;100870.44;;;-1.33;100.00
71976;BME280;60680;52.182;5.398;2022-12-10T00:21:16;100866.16;;;-1.33;100.00
71976;BME280;60680;52.182;5.398;2022-12-10T00:23:44;100876.38;;;-1.30;100.00
71976;BME280;60680;52.182;5.398;2022-12-10T00:26:15;100872.97;;;-1.29;100.00
71976;BME280;60680;52.182;5.398;2022-12-10T00:28:43;100873.81;;;-1.28;99.75
71976;BME280;60680;52.182;5.398;2022-12-10T00:31:12;100873.81;;;-1.30;100.00
71976;BME280;60680;52.182;5.398;2022-12-10T00:33:40;100867.88;;;-1.32;99.81
71976;BME280;60680;52.182;5.398;2022-12-10T00:36:09;100867.00;;;-1.32;100.00
71976;BME280;60680;52.182;5.398;2022-12-10T00:38:37;100863.63;;;-1.34;100.00
71976;BME280;60680;52.182;5.398;2022-12-10T00:41:04;100862.78;;;-1.33;100.00
71976;BME280;60680;52.182;5.398;2022-12-10T00:43:30;100861.06;;;-1.34;100.00
71976;BME280;60680;52.182;5.398;2022-12-10T00:45:57;100856.84;;;-1.34;100.00
71976;BME280;60680;52.182;5.398;2022-12-10T00:48:24;100864.47;;;-1.32;100.00
71976;BME280;60680;52.182;5.398;2022-12-10T00:53:39;100868.72;;;-1.28;100.00
71976;BME280;60680;52.182;5.398;2022-12-10T00:56:08;100871.28;;;-1.27;100.00
71976;BME280;60680;52.182;5.398;2022-12-10T00:58:36;100873.84;;;-1.25;100.00
71976;BME280;60680;52.182;5.398;2022-12-10T01:01:19;100878.09;;;-1.21;100.00
71976;BME280;60680;52.182;5.398;2022-12-10T01:03:48;100874.66;;;-1.21;99.73
71976;BME280;60680;52.182;5.398;2022-12-10T01:06:36;100870.41;;;-1.18;100.00
71976;BME280;60680;52.182;5.398;2022-12-10T01:09:06;100871.25;;;-1.17;100.00
71976;BME280;60680;52.182;5.398;2022-12-10T01:11:37;100879.75;;;-1.15;100.00
71976;BME280;60680;52.182;5.398;2022-12-10T01:14:05;100888.28;;;-1.12;100.00
71976;BME280;60680;52.182;5.398;2022-12-10T01:16:32;100893.38;;;-1.10;99.87
71976;BME280;60680;52.182;5.398;2022-12-10T01:18:59;100890.81;;;-1.09;100.00
71976;BME280;60680;52.182;5.398;2022-12-10T01:21:28;100895.91;;;-1.07;100.00
71976;BME280;60680;52.182;5.398;2022-12-10T01:23:55;100895.09;;;-1.06;100.00
71976;BME280;60680;52.182;5.398;2022-12-10T01:26:25;100895.06;;;-1.05;100.00
71976;BME280;60680;52.182;5.398;2022-12-10T01:28:53;100899.31;;;-1.05;99.88
71976;BME280;60680;52.182;5.398;2022-12-10T01:31:22;100895.09;;;-1.06;100.00
71976;BME280;60680;52.182;5.398;2022-12-10T01:33:49;100897.63;;;-1.06;100.00
71976;BME280;60680;52.182;5.398;2022-12-10T01:36:22;100902.75;;;-1.06;100.00
71976;BME280;60680;52.182;5.398;2022-12-10T01:38:49;100906.16;;;-1.04;100.00
71976;BME280;60680;52.182;5.398;2022-12-10T01:41:19;100908.66;;;-0.96;100.00
71976;BME280;60680;52.182;5.398;2022-12-10T01:46:29;100910.38;;;-0.91;100.00
71976;BME280;60680;52.182;5.398;2022-12-10T01:48:57;100909.53;;;-0.91;99.55
71976;BME280;60680;52.182;5.398;2022-12-10T01:51:28;100914.63;;;-0.91;100.00
71976;BME280;60680;52.182;5.398;2022-12-10T01:53:54;100911.22;;;-0.95;100.00
71976;BME280;60680;52.182;5.398;2022-12-10T01:56:22;100908.66;;;-0.95;99.52
71976;BME280;60680;52.182;5.398;2022-12-10T01:58:51;100904.41;;;-0.94;100.00
71976;BME280;60680;52.182;5.398;2022-12-10T02:01:40;100910.38;;;-0.91;100.00
71976;BME280;60680;52.182;5.398;2022-12-10T02:06:59;100910.38;;;-0.91;100.00
71976;BME280;60680;52.182;5.398;2022-12-10T02:09:43;100913.75;;;-0.90;99.81
71976;BME280;60680;52.182;5.398;2022-12-10T02:12:24;100912.91;;;-0.92;100.00
71976;BME280;60680;52.182;5.398;2022-12-10T02:15:05;100921.44;;;-0.95;100.00
71976;BME280;60680;52.182;5.398;2022-12-10T02:17:43;100918.03;;;-0.95;100.00
71976;BME280;60680;52.182;5.398;2022-12-10T02:23:02;100921.44;;;-0.93;100.00
71976;BME280;60680;52.182;5.398;2022-12-10T02:25:39;100921.44;;;-0.93;99.99
71976;BME280;60680;52.182;5.398;2022-12-10T02:28:21;100922.28;;;-0.93;100.00
71976;BME280;60680;52.182;5.398;2022-12-10T02:30:51;100919.72;;;-0.94;100.00
71976;BME280;60680;52.182;5.398;2022-12-10T02:33:19;100918.88;;;-0.95;100.00
71976;BME280;60680;52.182;5.398;2022-12-10T02:35:50;100930.78;;;-0.92;100.00
71976;BME280;60680;52.182;5.398;2022-12-10T02:38:24;100925.69;;;-0.91;99.84
71976;BME280;60680;52.182;5.398;2022-12-10T02:40:56;100926.53;;;-0.90;100.00
71976;BME280;60680;52.182;5.398;2022-12-10T02:43:25;100923.13;;;-0.91;100.00
71976;BME280;60680;52.182;5.398;2022-12-10T02:45:52;100919.75;;;-0.91;100.00
71976;BME280;60680;52.182;5.398;2022-12-10T02:48:20;100929.94;;;-0.93;100.00
71976;BME280;60680;52.182;5.398;2022-12-10T02:50:46;100925.69;;;-0.94;100.00
71976;BME280;60680;52.182;5.398;2022-12-10T02:53:13;100925.69;;;-0.94;100.00
71976;BME280;60680;52.182;5.398;2022-12-10T03:01:59;100922.28;;;-0.91;100.00
71976;BME280;60680;52.182;5.398;2022-12-10T03:04:38;100927.41;;;-0.93;100.00
71976;BME280;60680;52.182;5.398;2022-12-10T03:07:14;100921.44;;;-0.95;100.00
71976;BME280;60680;52.182;5.398;2022-12-10T03:09:50;100927.41;;;-0.93;100.00
71976;BME280;60680;52.182;5.398;2022-12-10T03:12:25;100921.44;;;-0.90;100.00
71976;BME280;60680;52.182;5.398;2022-12-10T03:14:58;100918.03;;;-0.89;100.00
71976;BME280;60680;52.182;5.398;2022-12-10T03:17:26;100920.59;;;-0.91;100.00
71976;BME280;60680;52.182;5.398;2022-12-10T03:19:55;100923.97;;;-0.87;100.00
71976;BME280;60680;52.182;5.398;2022-12-10T03:22:22;100921.41;;;-0.87;100.00
71976;BME280;60680;52.182;5.398;2022-12-10T03:24:49;100917.16;;;-0.88;100.00
71976;BME280;60680;52.182;5.398;2022-12-10T03:27:19;100912.06;;;-0.87;100.00
71976;BME280;60680;52.182;5.398;2022-12-10T03:29:49;100912.94;;;-0.89;100.00
71976;BME280;60680;52.182;5.398;2022-12-10T03:32:18;100913.75;;;-0.90;100.00
71976;BME280;60680;52.182;5.398;2022-12-10T03:34:47;100913.75;;;-0.90;100.00
71976;BME280;60680;52.182;5.398;2022-12-10T03:37:15;100905.25;;;-0.91;100.00
71976;BME280;60680;52.182;5.398;2022-12-10T03:39:42;100910.38;;;-0.89;100.00
71976;BME280;60680;52.182;5.398;2022-12-10T03:42:09;100906.09;;;-0.90;100.00
71976;BME280;60680;52.182;5.398;2022-12-10T03:44:38;100911.22;;;-0.90;100.00
71976;BME280;60680;52.182;5.398;2022-12-10T03:47:06;100909.53;;;-0.91;100.00
71976;BME280;60680;52.182;5.398;2022-12-10T03:49:34;100904.41;;;-0.91;100.00
71976;BME280;60680;52.182;5.398;2022-12-10T03:54:54;100913.78;;;-0.93;100.00
71976;BME280;60680;52.182;5.398;2022-12-10T03:57:21;100913.78;;;-0.98;100.00
71976;BME280;60680;52.182;5.398;2022-12-10T03:59:47;100906.13;;;-1.01;99.95
71976;BME280;60680;52.182;5.398;2022-12-10T04:02:14;100909.53;;;-0.99;100.00
71976;BME280;60680;52.182;5.398;2022-12-10T04:04:40;100916.31;;;-0.96;100.00
71976;BME280;60680;52.182;5.398;2022-12-10T04:07:07;100912.94;;;-0.97;100.00
71976;BME280;60680;52.182;5.398;2022-12-10T04:09:34;100906.09;;;-0.98;100.00
71976;BME280;60680;52.182;5.398;2022-12-10T04:12:01;100909.53;;;-0.97;100.00
71976;BME280;60680;52.182;5.398;2022-12-10T04:14:27;100902.72;;;-0.97;100.00
71976;BME280;60680;52.182;5.398;2022-12-10T04:17:13;100906.13;;;-0.99;100.00
71976;BME280;60680;52.182;5.398;2022-12-10T04:19:40;100918.06;;;-1.01;100.00
71976;BME280;60680;52.182;5.398;2022-12-10T04:22:06;100914.66;;;-1.05;100.00
71976;BME280;60680;52.182;5.398;2022-12-10T04:24:51;100918.06;;;-1.06;100.00
71976;BME280;60680;52.182;5.398;2022-12-10T04:27:38;100916.34;;;-1.04;100.00
71976;BME280;60680;52.182;5.398;2022-12-10T04:30:07;100911.25;;;-1.06;100.00
71976;BME280;60680;52.182;5.398;2022-12-10T04:32:34;100906.13;;;-1.07;100.00
71976;BME280;60680;52.182;5.398;2022-12-10T04:35:01;100909.56;;;-1.08;100.00
71976;BME280;60680;52.182;5.398;2022-12-10T04:37:28;100914.63;;;-1.07;100.00
71976;BME280;60680;52.182;5.398;2022-12-10T04:39:54;100906.13;;;-1.06;100.00
71976;BME280;60680;52.182;5.398;2022-12-10T04:42:22;100902.72;;;-1.05;100.00
71976;BME280;60680;52.182;5.398;2022-12-10T04:44:48;100913.78;;;-1.03;100.00
71976;BME280;60680;52.182;5.398;2022-12-10T04:47:15;100918.06;;;-1.09;100.00
71976;BME280;60680;52.182;5.398;2022-12-10T04:49:42;100921.47;;;-1.12;100.00
71976;BME280;60680;52.182;5.398;2022-12-10T04:52:11;100925.72;;;-1.12;100.00
71976;BME280;60680;52.182;5.398;2022-12-10T04:54:39;100923.16;;;-1.15;100.00
71976;BME280;60680;52.182;5.398;2022-12-10T04:57:07;100929.13;;;-1.13;100.00
71976;BME280;60680;52.182;5.398;2022-12-10T04:59:35;100927.44;;;-1.08;100.00
71976;BME280;60680;52.182;5.398;2022-12-10T05:02:03;100929.97;;;-1.08;100.00
71976;BME280;60680;52.182;5.398;2022-12-10T05:04:30;100929.97;;;-1.08;100.00
71976;BME280;60680;52.182;5.398;2022-12-10T05:06:57;100924.00;;;-1.06;100.00
71976;BME280;60680;52.182;5.398;2022-12-10T05:09:24;100921.47;;;-1.06;100.00
71976;BME280;60680;52.182;5.398;2022-12-10T05:11:51;100918.03;;;-1.05;100.00
71976;BME280;60680;52.182;5.398;2022-12-10T05:14:17;100920.59;;;-1.03;100.00
71976;BME280;60680;52.182;5.398;2022-12-10T05:16:44;100924.88;;;-1.04;100.00
71976;BME280;60680;52.182;5.398;2022-12-10T05:19:11;100925.75;;;-1.17;100.00
71976;BME280;60680;52.182;5.398;2022-12-10T05:21:37;100929.09;;;-1.09;100.00
71976;BME280;60680;52.182;5.398;2022-12-10T05:24:23;100937.63;;;-1.04;100.00
71976;BME280;60680;52.182;5.398;2022-12-10T05:26:51;100932.50;;;-1.02;100.00
71976;BME280;60680;52.182;5.398;2022-12-10T05:29:18;100939.31;;;-1.01;100.00
71976;BME280;60680;52.182;5.398;2022-12-10T05:31:45;100929.97;;;-1.04;100.00
71976;BME280;60680;52.182;5.398;2022-12-10T05:34:12;100929.13;;;-1.07;100.00
71976;BME280;60680;52.182;5.398;2022-12-10T05:36:39;100930.84;;;-1.06;100.00
71976;BME280;60680;52.182;5.398;2022-12-10T05:39:06;100929.13;;;-1.06;100.00
71976;BME280;60680;52.182;5.398;2022-12-10T05:41:38;100935.91;;;-1.05;100.00
71976;BME280;60680;52.182;5.398;2022-12-10T05:44:05;100933.38;;;-1.06;100.00
71976;BME280;60680;52.182;5.398;2022-12-10T05:46:34;100937.63;;;-1.07;100.00
71976;BME280;60680;52.182;5.398;2022-12-10T05:49:03;100942.72;;;-1.05;100.00
71976;BME280;60680;52.182;5.398;2022-12-10T05:51:32;100941.03;;;-1.05;100.00
71976;BME280;60680;52.182;5.398;2022-12-10T05:53:59;100937.66;;;-1.14;100.00
71976;BME280;60680;52.182;5.398;2022-12-10T05:56:28;100937.66;;;-1.19;100.00
71976;BME280;60680;52.182;5.398;2022-12-10T05:58:58;100925.72;;;-1.18;100.00
71976;BME280;60680;52.182;5.398;2022-12-10T06:01:27;100931.69;;;-1.23;100.00
71976;BME280;60680;52.182;5.398;2022-12-10T06:03:54;100932.53;;;-1.20;100.00
71976;BME280;60680;52.182;5.398;2022-12-10T06:06:26;100936.81;;;-1.21;100.00
71976;BME280;60680;52.182;5.398;2022-12-10T06:08:53;100942.72;;;-1.17;100.00
71976;BME280;60680;52.182;5.398;2022-12-10T06:11:20;100942.75;;;-1.16;100.00
71976;BME280;60680;52.182;5.398;2022-12-10T06:13:48;100946.97;;;-1.15;100.00
71976;BME280;60680;52.182;5.398;2022-12-10T06:16:21;100944.44;;;-1.15;100.00
71976;BME280;60680;52.182;5.398;2022-12-10T06:18:48;100937.63;;;-1.17;100.00
71976;BME280;60680;52.182;5.398;2022-12-10T06:21:16;100941.06;;;-1.17;100.00
71976;BME280;60680;52.182;5.398;2022-12-10T06:23:44;100938.50;;;-1.18;100.00
71976;BME280;60680;52.182;5.398;2022-12-10T06:26:14;100941.91;;;-1.16;100.00
71976;BME280;60680;52.182;5.398;2022-12-10T06:28:43;100938.50;;;-1.12;100.00
71976;BME280;60680;52.182;5.398;2022-12-10T06:31:10;100951.25;;;-1.12;100.00
71976;BME280;60680;52.182;5.398;2022-12-10T06:33:37;100952.13;;;-1.16;100.00
71976;BME280;60680;52.182;5.398;2022-12-10T06:36:09;100952.97;;;-1.19;100.00
71976;BME280;60680;52.182;5.398;2022-12-10T06:38:36;100958.91;;;-1.15;100.00
71976;BME280;60680;52.182;5.398;2022-12-10T06:41:08;100954.66;;;-1.12;100.00
71976;BME280;60680;52.182;5.398;2022-12-10T06:43:35;100971.69;;;-1.12;100.00
71976;BME280;60680;52.182;5.398;2022-12-10T06:46:06;100961.47;;;-1.14;100.00
71976;BME280;60680;52.182;5.398;2022-12-10T06:48:34;100967.41;;;-1.15;100.00
71976;BME280;60680;52.182;5.398;2022-12-10T06:51:03;100973.38;;;-1.14;100.00
71976;BME280;60680;52.182;5.398;2022-12-10T06:53:30;100974.22;;;-1.11;100.00
71976;BME280;60680;52.182;5.398;2022-12-10T06:55:58;100964.88;;;-1.07;100.00
71976;BME280;60680;52.182;5.398;2022-12-10T06:58:29;100961.47;;;-1.08;100.00
71976;BME280;60680;52.182;5.398;2022-12-10T07:01:07;100967.41;;;-1.07;100.00
71976;BME280;60680;52.182;5.398;2022-12-10T07:03:34;100980.19;;;-1.07;100.00
71976;BME280;60680;52.182;5.398;2022-12-10T07:06:01;100980.19;;;-1.06;100.00
71976;BME280;60680;52.182;5.398;2022-12-10T07:08:27;100974.22;;;-1.05;100.00
71976;BME280;60680;52.182;5.398;2022-12-10T07:10:55;100982.75;;;-1.06;100.00
71976;BME280;60680;52.182;5.398;2022-12-10T07:13:22;100984.44;;;-1.05;100.00
71976;BME280;60680;52.182;5.398;2022-12-10T07:15:56;100988.69;;;-1.05;100.00
71976;BME280;60680;52.182;5.398;2022-12-10T07:18:22;101000.59;;;-1.09;100.00
71976;BME280;60680;52.182;5.398;2022-12-10T07:20:49;100992.09;;;-1.14;100.00
71976;BME280;60680;52.182;5.398;2022-12-10T07:23:15;101005.72;;;-1.10;100.00
71976;BME280;60680;52.182;5.398;2022-12-10T07:25:42;101009.13;;;-1.07;100.00
71976;BME280;60680;52.182;5.398;2022-12-10T07:28:08;101007.44;;;-1.06;100.00
71976;BME280;60680;52.182;5.398;2022-12-10T07:30:35;100998.91;;;-1.07;100.00
71976;BME280;60680;52.182;5.398;2022-12-10T07:33:02;101000.63;;;-1.10;100.00
71976;BME280;60680;52.182;5.398;2022-12-10T07:35:28;100999.78;;;-1.08;100.00
71976;BME280;60680;52.182;5.398;2022-12-10T07:37:55;100999.78;;;-1.06;100.00
71976;BME280;60680;52.182;5.398;2022-12-10T07:40:22;100998.94;;;-1.08;100.00
71976;BME280;60680;52.182;5.398;2022-12-10T07:42:48;101003.19;;;-1.10;100.00
71976;BME280;60680;52.182;5.398;2022-12-10T07:45:15;101001.47;;;-1.10;100.00
71976;BME280;60680;52.182;5.398;2022-12-10T07:47:41;101001.47;;;-1.10;100.00
71976;BME280;60680;52.182;5.398;2022-12-10T07:50:08;101001.47;;;-1.08;100.00
71976;BME280;60680;52.182;5.398;2022-12-10T07:52:36;101010.00;;;-1.06;100.00
71976;BME280;60680;52.182;5.398;2022-12-10T07:55:03;101013.38;;;-1.06;100.00
71976;BME280;60680;52.182;5.398;2022-12-10T07:57:29;101020.19;;;-1.08;100.00
71976;BME280;60680;52.182;5.398;2022-12-10T07:59:56;101022.75;;;-1.08;100.00
71976;BME280;60680;52.182;5.398;2022-12-10T08:02:24;101026.16;;;-1.06;100.00
71976;BME280;60680;52.182;5.398;2022-12-10T08:04:51;101023.63;;;-1.04;100.00
71976;BME280;60680;52.182;5.398;2022-12-10T08:07:17;101016.78;;;-1.07;100.00
71976;BME280;60680;52.182;5.398;2022-12-10T08:09:44;101021.03;;;-1.09;100.00
71976;BME280;60680;52.182;5.398;2022-12-10T08:12:10;101015.06;;;-1.11;100.00
71976;BME280;60680;52.182;5.398;2022-12-10T08:14:37;101031.25;;;-1.13;100.00
71976;BME280;60680;52.182;5.398;2022-12-10T08:17:03;101030.41;;;-1.18;100.00
71976;BME280;60680;52.182;5.398;2022-12-10T08:19:30;101030.41;;;-1.18;100.00
71976;BME280;60680;52.182;5.398;2022-12-10T08:21:57;101031.25;;;-1.18;100.00
71976;BME280;60680;52.182;5.398;2022-12-10T08:24:24;101025.28;;;-1.15;100.00
71976;BME280;60680;52.182;5.398;2022-12-10T08:26:50;101029.53;;;-1.13;100.00
71976;BME280;60680;52.182;5.398;2022-12-10T08:29:17;101037.22;;;-1.10;100.00
71976;BME280;60680;52.182;5.398;2022-12-10T08:31:43;101039.78;;;-1.08;100.00
71976;BME280;60680;52.182;5.398;2022-12-10T08:34:15;101049.97;;;-1.07;100.00
71976;BME280;60680;52.182;5.398;2022-12-10T08:36:42;101044.03;;;-1.07;100.00
71976;BME280;60680;52.182;5.398;2022-12-10T08:39:09;101048.28;;;-1.06;100.00
71976;BME280;60680;52.182;5.398;2022-12-10T08:41:36;101051.69;;;-1.07;100.00
71976;BME280;60680;52.182;5.398;2022-12-10T08:44:03;101054.25;;;-1.10;100.00
71976;BME280;60680;52.182;5.398;2022-12-10T08:46:29;101055.09;;;-1.10;100.00
71976;BME280;60680;52.182;5.398;2022-12-10T08:48:56;101067.84;;;-1.05;100.00
71976;BME280;60680;52.182;5.398;2022-12-10T08:51:23;101067.00;;;-1.01;100.00
71976;BME280;60680;52.182;5.398;2022-12-10T08:53:50;101072.13;;;-1.01;100.00
71976;BME280;60680;52.182;5.398;2022-12-10T08:56:17;101074.66;;;-1.03;100.00
71976;BME280;60680;52.182;5.398;2022-12-10T08:58:43;101083.19;;;-1.00;100.00
71976;BME280;60680;52.182;5.398;2022-12-10T09:01:12;101090.84;;;-0.99;100.00
71976;BME280;60680;52.182;5.398;2022-12-10T09:03:39;101082.34;;;-0.99;100.00
71976;BME280;60680;52.182;5.398;2022-12-10T09:06:08;101084.91;;;-0.99;100.00
71976;BME280;60680;52.182;5.398;2022-12-10T09:08:35;101089.16;;;-1.01;100.00
71976;BME280;60680;52.182;5.398;2022-12-10T09:11:24;101077.25;;;-0.99;100.00
71976;BME280;60680;52.182;5.398;2022-12-10T09:13:51;101074.69;;;-1.01;100.00
71976;BME280;60680;52.182;5.398;2022-12-10T09:16:18;101075.53;;;-1.00;100.00
71976;BME280;60680;52.182;5.398;2022-12-10T09:18:45;101078.94;;;-1.01;100.00
71976;BME280;60680;52.182;5.398;2022-12-10T09:21:14;101089.16;;;-0.98;100.00
71976;BME280;60680;52.182;5.398;2022-12-10T09:23:43;101090.00;;;-0.99;100.00
71976;BME280;60680;52.182;5.398;2022-12-10T09:26:11;101095.94;;;-1.00;100.00
71976;BME280;60680;52.182;5.398;2022-12-10T09:28:39;101095.94;;;-1.00;100.00
71976;BME280;60680;52.182;5.398;2022-12-10T09:31:07;101095.09;;;-0.98;100.00
71976;BME280;60680;52.182;5.398;2022-12-10T09:33:41;101102.75;;;-0.98;100.00
71976;BME280;60680;52.182;5.398;2022-12-10T09:36:09;101100.22;;;-0.99;100.00
71976;BME280;60680;52.182;5.398;2022-12-10T09:38:38;101101.94;;;-1.01;100.00
71976;BME280;60680;52.182;5.398;2022-12-10T09:44:08;101109.59;;;-0.91;100.00
71976;BME280;60680;52.182;5.398;2022-12-10T09:46:51;101113.84;;;-0.88;100.00
71976;BME280;60680;52.182;5.398;2022-12-10T09:52:00;101113.00;;;-0.89;100.00
71976;BME280;60680;52.182;5.398;2022-12-10T09:54:33;101114.69;;;-0.88;100.00
71976;BME280;60680;52.182;5.398;2022-12-10T09:57:01;101113.00;;;-0.89;100.00
71976;BME280;60680;52.182;5.398;2022-12-10T09:59:49;101111.31;;;-0.91;100.00
71976;BME280;60680;52.182;5.398;2022-12-10T10:04:54;101108.75;;;-0.82;100.00
71976;BME280;60680;52.182;5.398;2022-12-10T10:07:28;101114.72;;;-0.80;100.00
71976;BME280;60680;52.182;5.398;2022-12-10T10:10:00;101119.84;;;-0.78;100.00
71976;BME280;60680;52.182;5.398;2022-12-10T10:12:28;101115.56;;;-0.78;99.50
71976;BME280;60680;52.182;5.398;2022-12-10T10:14:56;101121.53;;;-0.76;99.50
71976;BME280;60680;52.182;5.398;2022-12-10T10:17:29;101121.53;;;-0.74;99.86
71976;BME280;60680;52.182;5.398;2022-12-10T10:19:59;101129.19;;;-0.73;100.00
71976;BME280;60680;52.182;5.398;2022-12-10T10:22:26;101130.03;;;-0.72;100.00
71976;BME280;60680;52.182;5.398;2022-12-10T10:24:53;101124.91;;;-0.77;99.82
71976;BME280;60680;52.182;5.398;2022-12-10T10:27:28;101121.50;;;-0.79;99.37
71976;BME280;60680;52.182;5.398;2022-12-10T10:29:57;101114.72;;;-0.91;99.33
71976;BME280;60680;52.182;5.398;2022-12-10T10:32:26;101120.66;;;-0.90;100.00
71976;BME280;60680;52.182;5.398;2022-12-10T10:34:57;101118.09;;;-0.87;99.44
71976;BME280;60680;52.182;5.398;2022-12-10T10:39:59;101128.34;;;-0.78;99.11
71976;BME280;60680;52.182;5.398;2022-12-10T10:42:36;101118.13;;;-0.78;99.68
71976;BME280;60680;52.182;5.398;2022-12-10T10:45:05;101119.84;;;-0.74;100.00
71976;BME280;60680;52.182;5.398;2022-12-10T10:47:34;101110.44;;;-0.69;99.20
71976;BME280;60680;52.182;5.398;2022-12-10T10:50:05;101113.84;;;-0.67;99.87
71976;BME280;60680;52.182;5.398;2022-12-10T10:52:36;101119.84;;;-0.63;99.32
71976;BME280;60680;52.182;5.398;2022-12-10T10:55:04;101113.84;;;-0.62;99.35
71976;BME280;60680;52.182;5.398;2022-12-10T10:57:35;101120.69;;;-0.66;99.39
71976;BME280;60680;52.182;5.398;2022-12-10T11:00:20;101119.81;;;-0.69;99.29
71976;BME280;60680;52.182;5.398;2022-12-10T11:02:49;101117.28;;;-0.74;98.62
71976;BME280;60680;52.182;5.398;2022-12-10T11:07:42;101113.88;;;-0.74;99.76
71976;BME280;60680;52.182;5.398;2022-12-10T11:10:19;101118.97;;;-0.68;99.08
71976;BME280;60680;52.182;5.398;2022-12-10T11:15:39;101121.53;;;-0.60;100.00
71976;BME280;60680;52.182;5.398;2022-12-10T11:18:24;101118.97;;;-0.59;99.00
71976;BME280;60680;52.182;5.398;2022-12-10T11:21:03;101109.63;;;-0.57;99.76
71976;BME280;60680;52.182;5.398;2022-12-10T11:23:36;101120.69;;;-0.56;98.80
71976;BME280;60680;52.182;5.398;2022-12-10T11:37:01;101113.84;;;-0.62;99.72
71976;BME280;60680;52.182;5.398;2022-12-10T11:39:39;101106.19;;;-0.65;98.96
71976;BME280;60680;52.182;5.398;2022-12-10T11:44:51;101096.84;;;-0.68;99.49
71976;BME280;60680;52.182;5.398;2022-12-10T11:47:42;101095.97;;;-0.67;99.73
71976;BME280;60680;52.182;5.398;2022-12-10T11:50:28;101096.81;;;-0.60;99.09
71976;BME280;60680;52.182;5.398;2022-12-10T11:56:31;101106.19;;;-0.36;98.31
71976;BME280;60680;52.182;5.398;2022-12-10T11:59:27;101111.28;;;-0.34;98.12
71976;BME280;60680;52.182;5.398;2022-12-10T12:04:59;101106.16;;;-0.24;97.45
71976;BME280;60680;52.182;5.398;2022-12-10T12:07:36;101101.91;;;-0.25;98.35
71976;BME280;60680;52.182;5.398;2022-12-10T12:13:22;101112.09;;;-0.15;97.95
71976;BME280;60680;52.182;5.398;2022-12-10T12:16:05;101108.69;;;-0.17;98.28
71976;BME280;60680;52.182;5.398;2022-12-10T12:18:47;101115.53;;;-0.18;97.81
71976;BME280;60680;52.182;5.398;2022-12-10T12:21:17;101110.41;;;-0.18;97.89
71976;BME280;60680;52.182;5.398;2022-12-10T12:24:08;101107.00;;;-0.15;97.96
71976;BME280;60680;52.182;5.398;2022-12-10T12:26:40;101105.31;;;-0.15;97.69
71976;BME280;60680;52.182;5.398;2022-12-10T12:29:19;101096.78;;;-0.12;97.51
71976;BME280;60680;52.182;5.398;2022-12-10T12:32:01;101095.94;;;-0.14;98.03
71976;BME280;60680;52.182;5.398;2022-12-10T12:34:41;101107.84;;;-0.12;98.18
71976;BME280;60680;52.182;5.398;2022-12-10T12:37:14;101101.88;;;-0.14;97.64
71976;BME280;60680;52.182;5.398;2022-12-10T12:39:50;101094.22;;;-0.14;98.19
71976;BME280;60680;52.182;5.398;2022-12-10T12:42:27;101106.13;;;-0.10;97.14
71976;BME280;60680;52.182;5.398;2022-12-10T12:45:10;101103.59;;;-0.08;97.89
71976;BME280;60680;52.182;5.398;2022-12-10T12:47:43;101097.63;;;-0.10;97.31
71976;BME280;60680;52.182;5.398;2022-12-10T12:53:02;101101.91;;;-0.25;97.10
71976;BME280;60680;52.182;5.398;2022-12-10T12:55:37;101113.81;;;-0.24;97.11
71976;BME280;60680;52.182;5.398;2022-12-10T13:00:54;101107.00;;;-0.22;97.25
71976;BME280;60680;52.182;5.398;2022-12-10T13:03:34;101112.13;;;-0.18;98.49
71976;BME280;60680;52.182;5.398;2022-12-10T13:09:25;101104.44;;;-0.14;97.93
71976;BME280;60680;52.182;5.398;2022-12-10T13:14:31;101107.88;;;-0.15;98.29
71976;BME280;60680;52.182;5.398;2022-12-10T13:19:28;101101.88;;;-0.20;97.88
71976;BME280;60680;52.182;5.398;2022-12-10T13:27:17;101109.59;;;-0.23;97.59
71976;BME280;60680;52.182;5.398;2022-12-10T13:30:03;101118.94;;;-0.24;98.17
71976;BME280;60680;52.182;5.398;2022-12-10T13:43:25;101114.69;;;-0.12;97.48
71976;BME280;60680;52.182;5.398;2022-12-10T13:49:00;101111.25;;;-0.24;98.68
71976;BME280;60680;52.182;5.398;2022-12-10T13:51:38;101116.38;;;-0.24;97.77
71976;BME280;60680;52.182;5.398;2022-12-10T13:57:01;101112.13;;;-0.25;98.46
71976;BME280;60680;52.182;5.398;2022-12-10T13:59:45;101108.72;;;-0.25;98.52
71976;BME280;60680;52.182;5.398;2022-12-10T14:02:37;101109.56;;;-0.26;97.91
71976;BME280;60680;52.182;5.398;2022-12-10T14:05:33;101116.41;;;-0.25;97.95
71976;BME280;60680;52.182;5.398;2022-12-10T14:08:12;101111.28;;;-0.28;97.71
71976;BME280;60680;52.182;5.398;2022-12-10T14:10:41;101120.66;;;-0.30;98.26
71976;BME280;60680;52.182;5.398;2022-12-10T14:13:11;101123.22;;;-0.27;98.07
71976;BME280;60680;52.182;5.398;2022-12-10T14:15:39;101124.91;;;-0.26;98.66
71976;BME280;60680;52.182;5.398;2022-12-10T14:18:12;101126.59;;;-0.24;98.73
71976;BME280;60680;52.182;5.398;2022-12-10T14:20:45;101139.41;;;-0.28;98.11
71976;BME280;60680;52.182;5.398;2022-12-10T14:23:27;101142.81;;;-0.31;98.05
71976;BME280;60680;52.182;5.398;2022-12-10T14:26:05;101139.41;;;-0.31;98.35
71976;BME280;60680;52.182;5.398;2022-12-10T14:28:32;101141.13;;;-0.27;98.32
71976;BME280;60680;52.182;5.398;2022-12-10T14:31:02;101136.84;;;-0.27;98.54
71976;BME280;60680;52.182;5.398;2022-12-10T14:33:29;101135.16;;;-0.23;98.75
71976;BME280;60680;52.182;5.398;2022-12-10T14:35:55;101147.06;;;-0.24;98.52